Latest Weather Observations for Montague Island

IDN60901

Issued at 8:21 pm EDT Tuesday 23 October 2018 (issued every 10 minutes, with the page automatically refreshed every 10 minutes)

About weather observations | Map of Canberra area stations | Latest observations for Canberra area | Other Formats
Station Details ID: 069017 Name: MONTAGUE ISLAND LIGHTHOUSE Lat: -36.25 Lon: 150.23 Height: 52.0 m
Data from the previous 72 hours. | See also: Recent months at Montague Island
Date/Time
EDT
Temp
°C
App
Temp
°C
Dew
Point
°C
Rel
Hum
%
Delta-T
°C
Wind Press
QNH
hPa
Press
MSL
hPa
Rain since
9am
mm
Dir  Spd
km/h
Gust
km/h
Spd
kts
Gust
kts
23/08:00pm 17.1 8.5 15.1 88 1.2 SSE 54 67 29 36 1011.7 1011.7 0.0
23/07:56pm 17.3 10.3 15.3 88 1.2 SSE 46 67 25 36 1011.6 1011.6 0.0
23/07:51pm 18.4 13.1 16.2 87 1.3 SSE 39 63 21 34 1011.6 1011.6 0.0
23/07:33pm 18.5 16.7 17.0 91 0.9 N 22 50 12 27 1010.7 1010.7 0.0
23/07:30pm 18.6 17.4 17.1 91 0.9 N 19 26 10 14 1009.9 1009.9 0.0
23/07:00pm 18.9 16.8 17.2 90 1.0 N 24 32 13 17 1009.2 1009.2 0.0
23/06:30pm 19.0 14.9 17.3 90 1.0 NNE 35 41 19 22 1008.5 1008.5 0.0
23/06:00pm 19.0 14.5 17.3 90 1.0 NNE 37 46 20 25 1008.2 1008.2 0.0
23/05:30pm 19.1 15.9 17.2 89 1.2 NNE 30 41 16 22 1008.1 1008.1 0.0
23/05:00pm 19.4 16.3 17.4 88 1.2 NNE 30 39 16 21 1008.3 1008.3 0.0
23/04:30pm 19.6 18.0 17.4 87 1.3 NNE 22 32 12 17 1008.2 1008.2 0.0
23/04:00pm 19.8 17.9 17.6 87 1.4 NNE 24 30 13 16 1008.4 1008.4 0.0
23/03:30pm 19.7 16.0 17.5 87 1.3 NNE 33 39 18 21 1008.4 1008.4 0.0
23/03:00pm 20.1 18.2 17.7 86 1.5 NNE 24 32 13 17 1008.9 1008.9 0.0
23/02:30pm 20.4 19.2 17.6 84 1.7 NNE 20 28 11 15 1009.4 1009.4 0.0
23/02:00pm 20.0 22.1 18.0 88 1.2 NW 4 13 2 7 1009.8 1009.8 0.0
23/01:30pm 19.4 18.8 17.5 89 1.2 NNE 17 22 9 12 1009.9 1009.9 0.0
23/01:00pm 19.3 18.2 17.4 89 1.2 NNE 19 24 10 13 1010.4 1010.4 0.0
23/12:30pm 19.0 16.7 17.5 91 0.9 NNE 26 30 14 16 1010.5 1010.5 0.0
23/12:00pm 18.5 15.7 17.3 93 0.7 NNE 28 33 15 18 1011.1 1011.1 0.0
23/11:30am 18.0 15.7 17.5 97 0.3 NNE 26 32 14 17 1011.6 1011.6 0.0
23/11:00am 16.5 13.6 16.2 98 0.2 NNE 26 35 14 19 1011.9 1011.9 0.0
23/10:30am 16.1 13.5 15.8 98 0.2 NNE 24 30 13 16 1012.3 1012.3 0.0
23/10:00am 16.0 14.3 15.8 99 0.1 N 19 24 10 13 1012.8 1012.8 0.0
23/09:30am 15.6 14.1 15.4 99 0.1 N 17 24 9 13 1012.9 1012.9 0.0
23/09:00am 15.5 15.1 15.2 98 0.2 N 11 17 6 9 1013.1 1013.0 0.0
23/08:30am 15.3 14.8 15.0 98 0.2 NNW 11 17 6 9 1013.1 1013.0 0.0
23/08:00am 15.7 15.3 15.2 97 0.3 NNW 11 15 6 8 1013.2 1013.1 0.0
23/07:30am 15.8 16.2 15.3 97 0.3 NNW 7 13 4 7 1013.2 1013.1 0.0
23/07:00am 15.8 16.2 15.3 97 0.3 WNW 7 9 4 5 1013.4 1013.3 0.0
23/06:30am 15.8 16.4 15.3 97 0.3 WNW 6 11 3 6 1012.8 1012.8 0.0
23/06:00am 15.9 16.9 15.4 97 0.3 WNW 4 7 2 4 1012.8 1012.8 0.0
23/05:30am 16.0 16.1 15.5 97 0.3 WNW 9 11 5 6 1012.8 1012.8 0.0
23/05:00am 16.0 17.1 15.5 97 0.3 WNW 4 9 2 5 1012.6 1012.6 0.0
23/04:30am 16.0 16.7 15.7 98 0.2 WNW 6 7 3 4 1012.6 1012.6 0.0
23/04:00am 15.9 16.4 15.6 98 0.2 NW 7 9 4 5 1012.8 1012.8 0.0
23/03:30am 15.9 16.3 15.4 97 0.3 NW 7 9 4 5 1013.1 1013.0 0.0
23/03:00am 15.9 15.6 15.4 97 0.3 NNW 11 13 6 7 1013.3 1013.2 0.0
23/02:30am 16.3 15.7 15.7 96 0.4 N 13 17 7 9 1013.4 1013.3 0.0
23/02:00am 16.7 16.2 15.9 95 0.5 N 13 19 7 10 1013.8 1013.7 0.0
23/01:30am 17.2 14.7 16.2 94 0.6 NNE 24 32 13 17 1014.2 1014.1 0.0
23/01:00am 17.4 13.5 16.4 94 0.6 NNE 32 39 17 21 1014.6 1014.5 0.0
23/12:30am 17.4 13.5 16.4 94 0.6 NNE 32 37 17 20 1014.9 1014.8 0.0
23/12:00am 17.6 14.5 16.6 94 0.6 NNE 28 35 15 19 1015.4 1015.3 0.0
 
Date/Time
EDT
Temp
°C
App
Temp
°C
Dew
Point
°C
Rel
Hum
%
Delta-T
°C
Wind Press
QNH
hPa
Press
MSL
hPa
Rain since
9am
mm
Dir  Spd
km/h
Gust
km/h
Spd
kts
Gust
kts
22/11:30pm 17.5 14.8 16.5 94 0.6 NNE 26 32 14 17 1015.2 1015.1 0.0
22/11:00pm 17.5 14.3 16.4 93 0.7 NNE 28 33 15 18 1015.3 1015.2 0.0
22/10:30pm 17.5 14.3 16.4 93 0.7 NNE 28 35 15 19 1015.3 1015.2 0.0
22/10:00pm 17.6 14.4 16.3 92 0.8 NNE 28 32 15 17 1015.7 1015.6 0.0
22/09:30pm 17.7 13.7 16.2 91 0.9 NNE 32 41 17 22 1015.4 1015.3 0.0
22/09:00pm 17.8 13.8 16.1 90 1.0 NNE 32 39 17 21 1015.6 1015.5 0.0
22/08:30pm 17.9 13.7 16.2 90 1.0 NNE 33 43 18 23 1015.3 1015.2 0.0
22/08:00pm 17.9 13.3 16.1 89 1.1 NNE 35 44 19 24 1014.8 1014.7 0.0
22/07:30pm 17.9 13.3 16.1 89 1.1 NNE 35 43 19 23 1014.4 1014.3 0.0
22/07:00pm 18.0 13.4 16.0 88 1.2 NNE 35 43 19 23 1014.2 1014.1 0.0
22/06:30pm 18.1 14.1 16.1 88 1.2 NNE 32 39 17 21 1014.0 1013.9 0.0
22/06:00pm 18.3 14.3 16.1 87 1.3 NNE 32 39 17 21 1013.9 1013.8 0.0
22/05:30pm 18.5 15.2 16.1 86 1.4 NNE 28 35 15 19 1013.9 1013.8 0.0
22/05:00pm 18.7 15.0 15.9 84 1.7 NNE 30 39 16 21 1013.9 1013.8 0.0
22/04:30pm 18.8 15.4 15.9 83 1.7 NNE 28 35 15 19 1014.0 1013.9 0.0
22/04:00pm 19.0 15.7 16.0 83 1.8 NNE 28 35 15 19 1014.0 1013.9 0.0
22/03:30pm 19.0 14.9 15.9 82 1.8 NNE 32 41 17 22 1014.0 1013.9 0.0
22/03:00pm 19.1 14.9 15.6 80 2.1 NNE 32 39 17 21 1014.2 1014.1 0.0
22/02:30pm 19.3 15.4 15.6 79 2.2 NNE 30 39 16 21 1014.5 1014.4 0.0
22/02:00pm 19.3 15.0 15.4 78 2.3 NNE 32 39 17 21 1014.9 1014.8 0.0
22/01:30pm 19.2 15.2 15.3 78 2.3 NNE 30 43 16 23 1015.1 1015.0 0.0
22/01:00pm 19.1 14.5 15.2 78 2.3 NNE 33 43 18 23 1015.1 1015.0 0.0
22/12:30pm 19.1 14.6 15.0 77 2.4 NNE 32 41 17 22 1015.4 1015.3 0.0
22/12:00pm 18.7 13.9 14.6 77 2.4 NNE 33 41 18 22 1015.6 1015.5 0.0
22/11:30am 18.5 13.7 14.0 75 2.6 NNE 32 41 17 22 1016.0 1015.9 0.0
22/11:00am 18.4 13.6 13.9 75 2.6 NNE 32 41 17 22 1016.4 1016.3 0.0
22/10:30am 18.1 12.1 13.4 74 2.7 N 37 43 20 23 1016.8 1016.7 0.0
22/10:00am 17.6 13.5 13.7 78 2.2 N 28 35 15 19 1016.8 1016.7 0.0
22/09:30am 17.5 14.5 13.8 79 2.1 N 22 30 12 16 1016.9 1016.8 0.0
22/09:00am 16.8 13.7 13.5 81 1.9 N 22 32 12 17 1016.9 1016.8 0.0
22/08:30am 15.5 13.1 12.6 83 1.6 N 17 24 9 13 1017.0 1016.9 0.0
22/08:00am 15.0 11.9 12.3 84 1.5 N 20 24 11 13 1016.8 1016.7 0.0
22/07:30am 14.6 11.7 12.3 86 1.3 NNW 19 24 10 13 1016.6 1016.5 0.0
22/07:00am 14.0 10.8 12.0 88 1.1 N 20 26 11 14 1016.4 1016.3 0.0
22/06:30am 13.6 10.5 11.7 88 1.0 NNW 19 26 10 14 1016.4 1016.3 0.0
22/06:00am 13.8 10.5 11.5 86 1.2 N 20 28 11 15 1016.2 1016.1 0.0
22/05:30am 13.6 10.7 11.1 85 1.3 NNW 17 22 9 12 1016.3 1016.2 0.0
22/05:00am 13.7 11.2 11.2 85 1.3 NNW 15 20 8 11 1016.3 1016.2 0.0
22/04:30am 13.6 11.1 11.1 85 1.3 NNW 15 19 8 10 1016.4 1016.3 0.0
22/04:00am 13.8 11.7 11.3 85 1.3 NW 13 17 7 9 1016.6 1016.5 0.0
22/03:30am 14.0 11.6 11.3 84 1.4 NW 15 20 8 11 1016.7 1016.6 0.0
22/03:00am 14.2 12.2 11.5 84 1.4 NNW 13 17 7 9 1016.9 1016.8 0.0
22/02:30am 14.4 12.8 11.7 84 1.5 NW 11 15 6 8 1017.1 1017.0 0.0
22/02:00am 14.7 12.8 11.8 83 1.6 NNW 13 17 7 9 1017.2 1017.1 0.0
22/01:30am 14.7 12.8 11.8 83 1.6 NNW 13 17 7 9 1017.5 1017.4 0.0
22/01:00am 14.8 12.5 11.6 81 1.7 NNW 15 20 8 11 1017.7 1017.6 0.0
22/12:30am 14.9 12.2 11.7 81 1.7 NW 17 20 9 11 1017.9 1017.8 0.0
22/12:00am 15.1 12.3 11.3 78 2.0 NW 17 20 9 11 1018.0 1017.9 0.0
 
Date/Time
EDT
Temp
°C
App
Temp
°C
Dew
Point
°C
Rel
Hum
%
Delta-T
°C
Wind Press
QNH
hPa
Press
MSL
hPa
Rain since
9am
mm
Dir  Spd
km/h
Gust
km/h
Spd
kts
Gust
kts
21/11:30pm 15.5 12.9 10.7 73 2.5 NNW 15 20 8 11 1018.2 1018.1 0.0
21/11:00pm 15.8 13.2 10.8 72 2.7 N 15 20 8 11 1018.5 1018.4 0.0
21/10:30pm 16.0 13.7 10.3 69 3.0 NNE 13 17 7 9 1018.6 1018.5 0.0
21/10:00pm 16.0 13.3 10.3 69 3.0 NNE 15 20 8 11 1018.8 1018.7 0.0
21/09:30pm 15.6 13.5 9.7 68 3.1 NNE 11 15 6 8 1018.6 1018.5 0.0
21/09:00pm 15.6 13.5 9.7 68 3.1 NNE 11 13 6 7 1018.4 1018.3 0.0
21/08:30pm 15.8 14.1 9.9 68 3.1 NE 9 15 5 8 1018.2 1018.1 0.0
21/08:00pm 15.7 13.9 9.4 66 3.3 NE 9 15 5 8 1017.9 1017.8 0.0
21/07:30pm 15.7 14.3 9.6 67 3.2 NE 7 13 4 7 1017.7 1017.6 0.0
21/07:00pm 15.7 13.9 9.4 66 3.3 ENE 9 13 5 7 1017.3 1017.2 0.0
21/06:30pm 15.8 13.6 9.5 66 3.3 ENE 11 17 6 9 1016.8 1016.7 0.0
21/06:00pm 15.9 12.9 9.3 65 3.4 E 15 19 8 10 1016.4 1016.3 0.0
21/05:30pm 16.2 13.3 9.8 66 3.4 E 15 19 8 10 1016.2 1016.1 0.0
21/05:00pm 16.5 12.8 9.4 63 3.7 ESE 19 22 10 12 1016.0 1015.9 0.0
21/04:30pm 16.7 13.9 9.9 64 3.6 ESE 15 20 8 11 1015.9 1015.8 0.0
21/04:00pm 16.7 13.4 9.4 62 3.8 ESE 17 20 9 11 1015.7 1015.6 0.0
21/03:30pm 16.5 12.7 9.0 61 3.9 ESE 19 22 10 12 1015.7 1015.6 0.0
21/03:00pm 17.0 13.2 9.2 60 4.1 ESE 19 20 10 11 1015.8 1015.7 0.0
21/02:30pm 16.9 12.8 8.8 59 4.2 SE 20 22 11 12 1016.0 1015.9 0.0
21/02:00pm 17.4 13.7 9.6 60 4.1 SE 19 22 10 12 1016.3 1016.2 0.0
21/01:30pm 17.1 13.5 9.8 62 3.8 ESE 19 24 10 13 1016.6 1016.5 0.0
21/01:00pm 16.7 13.2 8.7 59 4.1 SE 17 20 9 11 1016.8 1016.7 0.0
21/12:30pm 16.8 13.4 9.2 61 3.9 SE 17 20 9 11 1017.0 1016.9 0.0
21/12:00pm 16.6 13.5 8.8 60 4.0 SE 15 19 8 10 1017.2 1017.1 0.0
21/11:30am 16.9 14.5 8.6 58 4.3 SSE 11 17 6 9 1017.5 1017.4 0.0
21/11:00am 16.4 14.0 8.6 60 4.0 SSE 11 17 6 9 1017.8 1017.7 0.0
21/10:30am 16.7 13.6 8.7 59 4.1 S 15 19 8 10 1017.8 1017.7 0.0
21/10:00am 15.8 12.2 8.5 62 3.7 SSW 17 24 9 13 1017.6 1017.5 0.0
21/09:30am 16.0 11.3 9.2 64 3.5 SW 24 30 13 16 1017.5 1017.4 0.0
21/09:00am 15.1 10.4 9.2 68 3.0 SW 24 30 13 16 1017.4 1017.3 19.0
21/08:30am 14.6 10.7 9.6 72 2.6 SW 20 28 11 15 1017.4 1017.3 19.0
21/08:00am 14.1 8.4 8.5 69 2.8 SW 28 33 15 18 1017.2 1017.1 19.0
21/07:30am 13.8 7.9 9.0 73 2.4 SW 30 41 16 22 1016.8 1016.7 19.0
21/07:00am 13.4 6.5 8.9 74 2.3 SW 35 39 19 21 1016.4 1016.3 19.0
21/06:30am 13.3 6.3 8.6 73 2.4 SW 35 46 19 25 1016.1 1016.0 19.0
21/06:00am 13.3 6.9 9.2 76 2.1 SW 33 44 18 24 1015.9 1015.8 19.0
21/05:30am 13.1 6.7 9.5 79 1.8 SW 33 43 18 23 1015.4 1015.3 19.0
21/05:00am 13.0 6.4 10.0 82 1.5 SW 35 44 19 24 1015.1 1015.0 19.0
21/04:30am 13.1 6.1 9.9 81 1.6 SW 37 48 20 26 1014.8 1014.7 19.0
21/04:00am 13.4 5.1 10.2 81 1.7 SSW 44 52 24 28 1014.6 1014.5 19.0
21/03:30am 13.2 5.3 10.9 86 1.2 SSW 43 52 23 28 1014.8 1014.7 19.0
21/03:00am 13.2 4.8 11.1 87 1.1 SSW 46 56 25 30 1014.9 1014.8 19.0
21/02:30am 12.9 4.3 11.8 93 0.6 SSW 48 57 26 31 1014.7 1014.6 19.0
21/02:00am 13.0 6.4 12.5 97 0.3 SSW 39 46 21 25 1014.7 1014.6 19.0
21/01:30am 13.0 7.6 12.7 98 0.2 SSW 33 41 18 22 1015.1 1015.0 19.0
21/01:00am 13.1 9.1 12.9 99 0.1 SSW 26 35 14 19 1015.6 1015.5 18.4
21/12:30am 12.9 8.4 12.6 98 0.2 SSW 28 35 15 19 1015.5 1015.4 17.6
21/12:00am 13.0 8.1 12.7 98 0.2 SW 30 35 16 19 1015.9 1015.8 17.4
 
Date/Time
EDT
Temp
°C
App
Temp
°C
Dew
Point
°C
Rel
Hum
%
Delta-T
°C
Wind Press
QNH
hPa
Press
MSL
hPa
Rain since
9am
mm
Dir  Spd
km/h
Gust
km/h
Spd
kts
Gust
kts
20/11:30pm 12.9 8.4 12.6 98 0.2 SW 28 33 15 18 1016.0 1015.9 15.8
20/11:00pm 12.8 7.5 12.5 98 0.2 SW 32 39 17 21 1015.8 1015.7 15.0
20/10:30pm 12.8 6.5 12.3 97 0.3 SW 37 44 20 24 1016.3 1016.2 14.0
20/10:00pm 13.3 8.1 12.7 96 0.3 SW 32 37 17 20 1015.6 1015.5 12.4
20/09:30pm 13.6 9.2 13.0 96 0.3 SW 28 37 15 20 1015.4 1015.3 12.4
20/09:00pm 13.4 8.2 12.8 96 0.3 SW 32 37 17 20 1014.9 1014.8 12.4
20/08:30pm 13.6 8.3 13.0 96 0.3 SSW 33 46 18 25 1014.3 1014.2 12.4

Latest Capital City Observations: Canberra | Sydney | Melbourne | Brisbane | Adelaide | Perth | Hobart | Darwin

Other Formats:

Comma delimited format used in spreadsheet applications
http://www.bom.gov.au/fwo/IDN60903/IDN60903.94939.axf

JavaScript Object Notation format (JSON) in row-major order
http://www.bom.gov.au/fwo/IDN60903/IDN60903.94939.json